sensor_id;sensor_type;location;lat;lon;timestamp;temperature;humidity
18041;DHT22;9145;48.588;9.250;2022-09-17T00:02:20;11.20;99.90
18041;DHT22;9145;48.588;9.250;2022-09-17T00:04:50;11.30;99.90
18041;DHT22;9145;48.588;9.250;2022-09-17T00:07:18;11.30;99.90
18041;DHT22;9145;48.588;9.250;2022-09-17T00:09:45;11.30;99.90
18041;DHT22;9145;48.588;9.250;2022-09-17T00:12:12;11.30;99.90
18041;DHT22;9145;48.588;9.250;2022-09-17T00:14:39;11.30;99.90
18041;DHT22;9145;48.588;9.250;2022-09-17T00:17:06;11.20;99.90
18041;DHT22;9145;48.588;9.250;2022-09-17T00:19:33;11.10;99.90
18041;DHT22;9145;48.588;9.250;2022-09-17T00:21:59;11.10;99.90
18041;DHT22;9145;48.588;9.250;2022-09-17T00:24:28;11.00;99.90
18041;DHT22;9145;48.588;9.250;2022-09-17T00:26:55;11.00;99.90
18041;DHT22;9145;48.588;9.250;2022-09-17T00:29:22;10.90;99.90
18041;DHT22;9145;48.588;9.250;2022-09-17T00:31:49;10.90;99.90
18041;DHT22;9145;48.588;9.250;2022-09-17T00:34:15;11.00;99.90
18041;DHT22;9145;48.588;9.250;2022-09-17T00:36:42;11.00;99.90
18041;DHT22;9145;48.588;9.250;2022-09-17T00:39:10;11.00;99.90
18041;DHT22;9145;48.588;9.250;2022-09-17T00:41:42;11.10;99.90
18041;DHT22;9145;48.588;9.250;2022-09-17T00:44:37;11.10;99.90
18041;DHT22;9145;48.588;9.250;2022-09-17T00:47:08;11.20;99.90
18041;DHT22;9145;48.588;9.250;2022-09-17T00:49:37;11.20;99.90
18041;DHT22;9145;48.588;9.250;2022-09-17T00:52:08;11.20;99.90
18041;DHT22;9145;48.588;9.250;2022-09-17T00:54:37;11.20;99.90
18041;DHT22;9145;48.588;9.250;2022-09-17T00:57:06;11.20;99.90
18041;DHT22;9145;48.588;9.250;2022-09-17T00:59:34;11.20;99.90
18041;DHT22;9145;48.588;9.250;2022-09-17T01:02:01;11.10;99.90
18041;DHT22;9145;48.588;9.250;2022-09-17T01:04:28;11.10;99.90
18041;DHT22;9145;48.588;9.250;2022-09-17T01:07:05;11.20;99.90
18041;DHT22;9145;48.588;9.250;2022-09-17T01:09:42;11.20;99.90
18041;DHT22;9145;48.588;9.250;2022-09-17T01:12:30;11.20;99.90
18041;DHT22;9145;48.588;9.250;2022-09-17T01:15:21;11.20;99.90
18041;DHT22;9145;48.588;9.250;2022-09-17T01:17:59;11.20;99.90
18041;DHT22;9145;48.588;9.250;2022-09-17T01:20:51;11.20;99.90
18041;DHT22;9145;48.588;9.250;2022-09-17T01:24:11;11.20;99.90
18041;DHT22;9145;48.588;9.250;2022-09-17T01:30:01;11.10;99.90
18041;DHT22;9145;48.588;9.250;2022-09-17T01:32:35;11.10;99.90
18041;DHT22;9145;48.588;9.250;2022-09-17T01:35:09;11.10;99.90
18041;DHT22;9145;48.588;9.250;2022-09-17T01:37:56;11.10;99.90
18041;DHT22;9145;48.588;9.250;2022-09-17T01:40:28;11.10;99.90
18041;DHT22;9145;48.588;9.250;2022-09-17T01:43:04;11.20;99.90
18041;DHT22;9145;48.588;9.250;2022-09-17T01:45:36;11.20;99.90
18041;DHT22;9145;48.588;9.250;2022-09-17T01:48:09;11.20;99.90
18041;DHT22;9145;48.588;9.250;2022-09-17T01:50:41;11.30;99.90
18041;DHT22;9145;48.588;9.250;2022-09-17T01:53:09;11.30;99.90
18041;DHT22;9145;48.588;9.250;2022-09-17T01:55:38;11.30;99.90
18041;DHT22;9145;48.588;9.250;2022-09-17T01:58:11;11.20;99.90
18041;DHT22;9145;48.588;9.250;2022-09-17T02:00:42;11.20;99.90
18041;DHT22;9145;48.588;9.250;2022-09-17T02:03:16;11.20;99.90
18041;DHT22;9145;48.588;9.250;2022-09-17T02:05:48;11.30;99.90
18041;DHT22;9145;48.588;9.250;2022-09-17T02:08:19;11.30;99.90
18041;DHT22;9145;48.588;9.250;2022-09-17T02:10:49;11.20;99.90
18041;DHT22;9145;48.588;9.250;2022-09-17T02:13:21;11.20;99.90
18041;DHT22;9145;48.588;9.250;2022-09-17T02:15:52;11.10;99.90
18041;DHT22;9145;48.588;9.250;2022-09-17T02:18:26;11.10;99.90
18041;DHT22;9145;48.588;9.250;2022-09-17T02:21:01;11.20;99.90
18041;DHT22;9145;48.588;9.250;2022-09-17T02:23:34;11.20;99.90
18041;DHT22;9145;48.588;9.250;2022-09-17T02:26:06;11.10;99.90
18041;DHT22;9145;48.588;9.250;2022-09-17T02:28:40;11.00;99.90
18041;DHT22;9145;48.588;9.250;2022-09-17T02:31:08;10.90;99.90
18041;DHT22;9145;48.588;9.250;2022-09-17T02:33:37;10.90;99.90
18041;DHT22;9145;48.588;9.250;2022-09-17T02:36:05;10.80;99.90
18041;DHT22;9145;48.588;9.250;2022-09-17T02:38:32;10.80;99.90
18041;DHT22;9145;48.588;9.250;2022-09-17T02:41:05;10.80;99.90
18041;DHT22;9145;48.588;9.250;2022-09-17T02:43:40;10.80;99.90
18041;DHT22;9145;48.588;9.250;2022-09-17T02:46:19;10.70;99.90
18041;DHT22;9145;48.588;9.250;2022-09-17T02:49:14;10.60;99.90
18041;DHT22;9145;48.588;9.250;2022-09-17T02:51:52;10.50;99.90
18041;DHT22;9145;48.588;9.250;2022-09-17T02:54:25;10.50;99.90
18041;DHT22;9145;48.588;9.250;2022-09-17T02:57:02;10.60;99.90
18041;DHT22;9145;48.588;9.250;2022-09-17T02:59:36;10.60;99.90
18041;DHT22;9145;48.588;9.250;2022-09-17T03:02:11;10.60;99.90
18041;DHT22;9145;48.588;9.250;2022-09-17T03:04:43;10.70;99.90
18041;DHT22;9145;48.588;9.250;2022-09-17T03:07:12;10.70;99.90
18041;DHT22;9145;48.588;9.250;2022-09-17T03:09:40;10.70;99.90
18041;DHT22;9145;48.588;9.250;2022-09-17T03:12:08;10.80;99.90
18041;DHT22;9145;48.588;9.250;2022-09-17T03:14:35;10.80;99.90
18041;DHT22;9145;48.588;9.250;2022-09-17T03:17:02;10.80;99.90
18041;DHT22;9145;48.588;9.250;2022-09-17T03:19:29;10.70;99.90
18041;DHT22;9145;48.588;9.250;2022-09-17T03:21:57;10.70;99.90
18041;DHT22;9145;48.588;9.250;2022-09-17T03:24:24;10.80;99.90
18041;DHT22;9145;48.588;9.250;2022-09-17T03:26:51;10.70;99.90
18041;DHT22;9145;48.588;9.250;2022-09-17T03:29:18;10.70;99.90
18041;DHT22;9145;48.588;9.250;2022-09-17T03:31:45;10.60;99.90
18041;DHT22;9145;48.588;9.250;2022-09-17T03:34:11;10.60;99.90
18041;DHT22;9145;48.588;9.250;2022-09-17T03:36:38;10.50;99.90
18041;DHT22;9145;48.588;9.250;2022-09-17T03:39:07;10.50;99.90
18041;DHT22;9145;48.588;9.250;2022-09-17T03:41:33;10.50;99.90
18041;DHT22;9145;48.588;9.250;2022-09-17T03:44:01;10.50;99.90
18041;DHT22;9145;48.588;9.250;2022-09-17T03:46:27;10.50;99.90
18041;DHT22;9145;48.588;9.250;2022-09-17T03:48:55;10.50;99.90
18041;DHT22;9145;48.588;9.250;2022-09-17T03:51:21;10.40;99.90
18041;DHT22;9145;48.588;9.250;2022-09-17T03:53:48;10.30;99.90
18041;DHT22;9145;48.588;9.250;2022-09-17T03:56:16;10.30;99.90
18041;DHT22;9145;48.588;9.250;2022-09-17T03:58:44;10.20;99.90
18041;DHT22;9145;48.588;9.250;2022-09-17T04:01:10;10.30;99.90
18041;DHT22;9145;48.588;9.250;2022-09-17T04:03:37;10.20;99.90
18041;DHT22;9145;48.588;9.250;2022-09-17T04:06:04;10.20;99.90
18041;DHT22;9145;48.588;9.250;2022-09-17T04:08:31;10.20;99.90
18041;DHT22;9145;48.588;9.250;2022-09-17T04:10:58;10.10;99.90
18041;DHT22;9145;48.588;9.250;2022-09-17T04:13:26;10.10;99.90
18041;DHT22;9145;48.588;9.250;2022-09-17T04:15:53;10.10;99.90
18041;DHT22;9145;48.588;9.250;2022-09-17T04:18:20;10.10;99.90
18041;DHT22;9145;48.588;9.250;2022-09-17T04:20:47;10.10;99.90
18041;DHT22;9145;48.588;9.250;2022-09-17T04:23:13;10.00;99.90
18041;DHT22;9145;48.588;9.250;2022-09-17T04:25:40;10.00;99.90
18041;DHT22;9145;48.588;9.250;2022-09-17T04:28:07;9.90;99.90
18041;DHT22;9145;48.588;9.250;2022-09-17T04:30:36;9.90;99.90
18041;DHT22;9145;48.588;9.250;2022-09-17T04:33:03;9.90;99.90
18041;DHT22;9145;48.588;9.250;2022-09-17T04:35:30;9.90;99.90
18041;DHT22;9145;48.588;9.250;2022-09-17T04:37:57;9.90;99.90
18041;DHT22;9145;48.588;9.250;2022-09-17T04:40:25;9.90;99.90
18041;DHT22;9145;48.588;9.250;2022-09-17T04:42:52;9.90;99.90
18041;DHT22;9145;48.588;9.250;2022-09-17T04:45:20;10.00;99.90
18041;DHT22;9145;48.588;9.250;2022-09-17T04:47:48;10.00;99.90
18041;DHT22;9145;48.588;9.250;2022-09-17T04:50:16;9.90;99.90
18041;DHT22;9145;48.588;9.250;2022-09-17T04:52:44;9.90;99.90
18041;DHT22;9145;48.588;9.250;2022-09-17T04:55:11;9.90;99.90
18041;DHT22;9145;48.588;9.250;2022-09-17T04:57:38;9.80;99.90
18041;DHT22;9145;48.588;9.250;2022-09-17T05:00:12;9.80;99.90
18041;DHT22;9145;48.588;9.250;2022-09-17T05:02:39;9.80;99.90
18041;DHT22;9145;48.588;9.250;2022-09-17T05:05:08;9.80;99.90
18041;DHT22;9145;48.588;9.250;2022-09-17T05:07:37;9.70;99.90
18041;DHT22;9145;48.588;9.250;2022-09-17T05:10:05;9.70;99.90
18041;DHT22;9145;48.588;9.250;2022-09-17T05:12:32;9.80;99.90
18041;DHT22;9145;48.588;9.250;2022-09-17T05:14:59;9.80;99.90
18041;DHT22;9145;48.588;9.250;2022-09-17T05:17:26;9.80;99.90
18041;DHT22;9145;48.588;9.250;2022-09-17T05:19:53;9.90;99.90
18041;DHT22;9145;48.588;9.250;2022-09-17T05:22:21;9.90;99.90
18041;DHT22;9145;48.588;9.250;2022-09-17T05:24:48;9.90;99.90
18041;DHT22;9145;48.588;9.250;2022-09-17T05:27:14;10.00;99.90
18041;DHT22;9145;48.588;9.250;2022-09-17T05:29:41;10.00;99.90
18041;DHT22;9145;48.588;9.250;2022-09-17T05:32:09;10.10;99.90
18041;DHT22;9145;48.588;9.250;2022-09-17T05:34:36;10.10;99.90
18041;DHT22;9145;48.588;9.250;2022-09-17T05:37:03;10.10;99.90
18041;DHT22;9145;48.588;9.250;2022-09-17T05:39:31;10.20;99.90
18041;DHT22;9145;48.588;9.250;2022-09-17T05:41:58;10.20;99.90
18041;DHT22;9145;48.588;9.250;2022-09-17T05:44:25;10.20;99.90
18041;DHT22;9145;48.588;9.250;2022-09-17T05:46:53;10.20;99.90
18041;DHT22;9145;48.588;9.250;2022-09-17T05:49:20;10.20;99.90
18041;DHT22;9145;48.588;9.250;2022-09-17T05:51:49;10.10;99.90
18041;DHT22;9145;48.588;9.250;2022-09-17T05:54:15;10.10;99.90
18041;DHT22;9145;48.588;9.250;2022-09-17T05:56:44;10.10;99.90
18041;DHT22;9145;48.588;9.250;2022-09-17T05:59:11;10.10;99.90
18041;DHT22;9145;48.588;9.250;2022-09-17T06:01:39;10.10;99.90
18041;DHT22;9145;48.588;9.250;2022-09-17T06:04:07;10.10;99.90
18041;DHT22;9145;48.588;9.250;2022-09-17T06:06:34;10.10;99.90
18041;DHT22;9145;48.588;9.250;2022-09-17T06:09:02;10.10;99.90
18041;DHT22;9145;48.588;9.250;2022-09-17T06:11:29;10.10;99.90
18041;DHT22;9145;48.588;9.250;2022-09-17T06:13:57;10.10;99.90
18041;DHT22;9145;48.588;9.250;2022-09-17T06:16:24;10.20;99.90
18041;DHT22;9145;48.588;9.250;2022-09-17T06:18:51;10.10;99.90
18041;DHT22;9145;48.588;9.250;2022-09-17T06:21:18;10.20;99.90
18041;DHT22;9145;48.588;9.250;2022-09-17T06:23:46;10.30;99.90
18041;DHT22;9145;48.588;9.250;2022-09-17T06:26:13;10.20;99.90
18041;DHT22;9145;48.588;9.250;2022-09-17T06:28:40;10.20;99.90
18041;DHT22;9145;48.588;9.250;2022-09-17T06:31:09;10.20;99.90
18041;DHT22;9145;48.588;9.250;2022-09-17T06:33:36;10.20;99.90
18041;DHT22;9145;48.588;9.250;2022-09-17T06:36:05;10.20;99.90
18041;DHT22;9145;48.588;9.250;2022-09-17T06:38:34;10.10;99.90
18041;DHT22;9145;48.588;9.250;2022-09-17T06:41:01;10.20;99.90
18041;DHT22;9145;48.588;9.250;2022-09-17T06:43:29;10.30;99.90
18041;DHT22;9145;48.588;9.250;2022-09-17T06:45:57;10.30;99.90
18041;DHT22;9145;48.588;9.250;2022-09-17T06:48:26;10.50;99.90
18041;DHT22;9145;48.588;9.250;2022-09-17T06:50:53;10.60;99.90
18041;DHT22;9145;48.588;9.250;2022-09-17T06:53:21;10.70;99.90
18041;DHT22;9145;48.588;9.250;2022-09-17T06:55:48;10.70;99.90
18041;DHT22;9145;48.588;9.250;2022-09-17T06:58:15;10.80;99.90
18041;DHT22;9145;48.588;9.250;2022-09-17T07:00:42;10.80;99.90
18041;DHT22;9145;48.588;9.250;2022-09-17T07:03:09;10.80;99.90
18041;DHT22;9145;48.588;9.250;2022-09-17T07:05:37;10.80;99.90
18041;DHT22;9145;48.588;9.250;2022-09-17T07:08:04;10.80;99.90
18041;DHT22;9145;48.588;9.250;2022-09-17T07:10:31;10.80;99.90
18041;DHT22;9145;48.588;9.250;2022-09-17T07:12:58;10.80;99.90
18041;DHT22;9145;48.588;9.250;2022-09-17T07:15:25;10.80;99.90
18041;DHT22;9145;48.588;9.250;2022-09-17T07:17:51;10.80;99.90
18041;DHT22;9145;48.588;9.250;2022-09-17T07:20:18;10.80;99.90
18041;DHT22;9145;48.588;9.250;2022-09-17T07:22:54;11.00;99.90
18041;DHT22;9145;48.588;9.250;2022-09-17T07:25:21;11.10;99.90
18041;DHT22;9145;48.588;9.250;2022-09-17T07:27:48;11.10;99.90
18041;DHT22;9145;48.588;9.250;2022-09-17T07:30:15;11.10;99.90
18041;DHT22;9145;48.588;9.250;2022-09-17T07:32:42;11.10;99.90
18041;DHT22;9145;48.588;9.250;2022-09-17T07:35:09;11.00;99.90
18041;DHT22;9145;48.588;9.250;2022-09-17T07:37:36;11.00;99.90
18041;DHT22;9145;48.588;9.250;2022-09-17T07:40:06;10.90;99.90
18041;DHT22;9145;48.588;9.250;2022-09-17T07:42:33;10.90;99.90
18041;DHT22;9145;48.588;9.250;2022-09-17T07:45:00;10.90;99.90
18041;DHT22;9145;48.588;9.250;2022-09-17T07:47:27;10.80;99.90
18041;DHT22;9145;48.588;9.250;2022-09-17T07:49:53;10.70;99.90
18041;DHT22;9145;48.588;9.250;2022-09-17T07:52:20;10.60;99.90
18041;DHT22;9145;48.588;9.250;2022-09-17T07:54:47;10.50;99.90
18041;DHT22;9145;48.588;9.250;2022-09-17T07:57:15;10.50;99.90
18041;DHT22;9145;48.588;9.250;2022-09-17T07:59:42;10.60;99.90
18041;DHT22;9145;48.588;9.250;2022-09-17T08:02:11;10.60;99.90
18041;DHT22;9145;48.588;9.250;2022-09-17T08:04:40;10.70;99.90
18041;DHT22;9145;48.588;9.250;2022-09-17T08:07:10;11.00;99.90
18041;DHT22;9145;48.588;9.250;2022-09-17T08:09:37;11.00;99.90
18041;DHT22;9145;48.588;9.250;2022-09-17T08:12:04;11.00;99.90
18041;DHT22;9145;48.588;9.250;2022-09-17T08:14:32;11.00;99.90
18041;DHT22;9145;48.588;9.250;2022-09-17T08:16:59;10.80;99.90
18041;DHT22;9145;48.588;9.250;2022-09-17T08:19:25;10.80;99.90
18041;DHT22;9145;48.588;9.250;2022-09-17T08:21:56;10.70;99.90
18041;DHT22;9145;48.588;9.250;2022-09-17T08:24:23;10.70;99.90
18041;DHT22;9145;48.588;9.250;2022-09-17T08:26:50;10.60;99.90
18041;DHT22;9145;48.588;9.250;2022-09-17T08:29:16;10.50;99.90
18041;DHT22;9145;48.588;9.250;2022-09-17T08:31:45;10.40;99.90
18041;DHT22;9145;48.588;9.250;2022-09-17T08:34:11;10.40;99.90
18041;DHT22;9145;48.588;9.250;2022-09-17T08:36:38;10.40;99.90
18041;DHT22;9145;48.588;9.250;2022-09-17T08:39:05;10.40;99.90
18041;DHT22;9145;48.588;9.250;2022-09-17T08:41:43;10.50;99.90
18041;DHT22;9145;48.588;9.250;2022-09-17T08:44:20;10.50;99.90
18041;DHT22;9145;48.588;9.250;2022-09-17T08:46:52;10.50;99.90
18041;DHT22;9145;48.588;9.250;2022-09-17T08:49:28;10.40;99.90
18041;DHT22;9145;48.588;9.250;2022-09-17T08:52:14;10.40;99.90
18041;DHT22;9145;48.588;9.250;2022-09-17T08:54:48;10.50;99.90
18041;DHT22;9145;48.588;9.250;2022-09-17T08:57:22;10.50;99.90
18041;DHT22;9145;48.588;9.250;2022-09-17T08:59:56;10.70;99.90
18041;DHT22;9145;48.588;9.250;2022-09-17T09:02:37;10.80;99.90
18041;DHT22;9145;48.588;9.250;2022-09-17T09:05:10;10.80;99.90
18041;DHT22;9145;48.588;9.250;2022-09-17T09:07:44;11.00;99.90
18041;DHT22;9145;48.588;9.250;2022-09-17T09:10:17;11.20;99.90
18041;DHT22;9145;48.588;9.250;2022-09-17T09:12:45;11.30;99.90
18041;DHT22;9145;48.588;9.250;2022-09-17T09:15:26;11.40;99.90
18041;DHT22;9145;48.588;9.250;2022-09-17T09:17:56;11.60;99.90
18041;DHT22;9145;48.588;9.250;2022-09-17T09:20:29;11.80;99.90
18041;DHT22;9145;48.588;9.250;2022-09-17T09:23:02;11.90;99.90
18041;DHT22;9145;48.588;9.250;2022-09-17T09:25:40;12.00;99.90
18041;DHT22;9145;48.588;9.250;2022-09-17T09:28:19;11.90;99.90
18041;DHT22;9145;48.588;9.250;2022-09-17T09:31:00;12.00;99.90
18041;DHT22;9145;48.588;9.250;2022-09-17T09:33:35;12.20;99.90
18041;DHT22;9145;48.588;9.250;2022-09-17T09:36:05;12.10;99.90
18041;DHT22;9145;48.588;9.250;2022-09-17T09:38:35;12.20;99.90
18041;DHT22;9145;48.588;9.250;2022-09-17T09:41:07;12.20;99.90
18041;DHT22;9145;48.588;9.250;2022-09-17T09:43:40;12.20;99.90
18041;DHT22;9145;48.588;9.250;2022-09-17T09:46:22;12.00;99.90
18041;DHT22;9145;48.588;9.250;2022-09-17T09:49:02;11.90;99.90
18041;DHT22;9145;48.588;9.250;2022-09-17T09:51:38;11.80;99.90
18041;DHT22;9145;48.588;9.250;2022-09-17T09:54:17;11.70;99.90
18041;DHT22;9145;48.588;9.250;2022-09-17T09:56:54;11.70;99.90
18041;DHT22;9145;48.588;9.250;2022-09-17T09:59:22;11.60;99.90
18041;DHT22;9145;48.588;9.250;2022-09-17T10:01:49;11.60;99.90
18041;DHT22;9145;48.588;9.250;2022-09-17T10:04:20;11.70;99.90
18041;DHT22;9145;48.588;9.250;2022-09-17T10:06:49;11.80;99.90
18041;DHT22;9145;48.588;9.250;2022-09-17T10:09:17;11.90;99.90
18041;DHT22;9145;48.588;9.250;2022-09-17T10:12:00;11.90;99.90
18041;DHT22;9145;48.588;9.250;2022-09-17T10:14:29;12.00;99.90
18041;DHT22;9145;48.588;9.250;2022-09-17T10:17:17;12.00;99.90
18041;DHT22;9145;48.588;9.250;2022-09-17T10:22:31;12.00;99.90
18041;DHT22;9145;48.588;9.250;2022-09-17T10:25:00;12.10;99.90
18041;DHT22;9145;48.588;9.250;2022-09-17T10:27:28;12.00;99.90
18041;DHT22;9145;48.588;9.250;2022-09-17T10:30:02;12.00;99.90
18041;DHT22;9145;48.588;9.250;2022-09-17T10:32:29;11.90;99.90
18041;DHT22;9145;48.588;9.250;2022-09-17T10:34:59;12.00;99.90
18041;DHT22;9145;48.588;9.250;2022-09-17T10:37:41;12.00;99.90
18041;DHT22;9145;48.588;9.250;2022-09-17T10:40:28;12.20;99.90
18041;DHT22;9145;48.588;9.250;2022-09-17T10:43:16;12.30;99.90
18041;DHT22;9145;48.588;9.250;2022-09-17T10:45:44;12.60;99.90
18041;DHT22;9145;48.588;9.250;2022-09-17T10:48:20;12.90;99.90
18041;DHT22;9145;48.588;9.250;2022-09-17T10:50:50;13.00;99.90
18041;DHT22;9145;48.588;9.250;2022-09-17T10:53:19;13.00;99.90
18041;DHT22;9145;48.588;9.250;2022-09-17T10:55:49;13.10;99.90
18041;DHT22;9145;48.588;9.250;2022-09-17T10:58:26;13.20;99.90
18041;DHT22;9145;48.588;9.250;2022-09-17T11:01:04;13.30;99.90
18041;DHT22;9145;48.588;9.250;2022-09-17T11:04:03;13.40;99.90
18041;DHT22;9145;48.588;9.250;2022-09-17T11:06:53;13.70;99.90
18041;DHT22;9145;48.588;9.250;2022-09-17T11:09:34;14.00;99.90
18041;DHT22;9145;48.588;9.250;2022-09-17T11:12:18;14.30;99.90
18041;DHT22;9145;48.588;9.250;2022-09-17T11:14:50;14.70;99.90
18041;DHT22;9145;48.588;9.250;2022-09-17T11:17:45;14.50;99.90
18041;DHT22;9145;48.588;9.250;2022-09-17T11:20:25;14.40;99.90
18041;DHT22;9145;48.588;9.250;2022-09-17T11:23:03;14.30;99.90
18041;DHT22;9145;48.588;9.250;2022-09-17T11:25:40;14.30;99.90
18041;DHT22;9145;48.588;9.250;2022-09-17T11:28:20;14.40;99.90
18041;DHT22;9145;48.588;9.250;2022-09-17T11:30:59;14.50;99.90
18041;DHT22;9145;48.588;9.250;2022-09-17T11:33:55;14.50;99.90
18041;DHT22;9145;48.588;9.250;2022-09-17T11:36:26;14.50;99.90
18041;DHT22;9145;48.588;9.250;2022-09-17T11:38:59;14.40;99.90
18041;DHT22;9145;48.588;9.250;2022-09-17T11:41:38;14.10;99.90
18041;DHT22;9145;48.588;9.250;2022-09-17T11:44:09;13.90;99.90
18041;DHT22;9145;48.588;9.250;2022-09-17T11:46:42;13.70;99.90
18041;DHT22;9145;48.588;9.250;2022-09-17T11:49:17;13.50;99.90
18041;DHT22;9145;48.588;9.250;2022-09-17T11:51:51;13.30;99.90
18041;DHT22;9145;48.588;9.250;2022-09-17T11:54:22;13.50;99.90
18041;DHT22;9145;48.588;9.250;2022-09-17T11:56:52;13.80;99.90
18041;DHT22;9145;48.588;9.250;2022-09-17T11:59:25;14.20;99.90
18041;DHT22;9145;48.588;9.250;2022-09-17T12:02:09;14.20;99.90
18041;DHT22;9145;48.588;9.250;2022-09-17T12:04:43;14.40;99.90
18041;DHT22;9145;48.588;9.250;2022-09-17T12:07:20;14.50;99.90
18041;DHT22;9145;48.588;9.250;2022-09-17T12:09:54;14.60;99.90
18041;DHT22;9145;48.588;9.250;2022-09-17T12:12:23;14.70;99.90
18041;DHT22;9145;48.588;9.250;2022-09-17T12:14:54;14.60;99.90
18041;DHT22;9145;48.588;9.250;2022-09-17T12:17:25;14.70;99.90
18041;DHT22;9145;48.588;9.250;2022-09-17T12:19:58;15.00;99.90
18041;DHT22;9145;48.588;9.250;2022-09-17T12:22:31;14.90;99.90
18041;DHT22;9145;48.588;9.250;2022-09-17T12:25:01;14.90;99.90
18041;DHT22;9145;48.588;9.250;2022-09-17T12:27:34;14.90;99.90
18041;DHT22;9145;48.588;9.250;2022-09-17T12:30:09;14.80;99.90
18041;DHT22;9145;48.588;9.250;2022-09-17T12:33:14;14.80;99.90
18041;DHT22;9145;48.588;9.250;2022-09-17T12:36:01;14.70;99.90
18041;DHT22;9145;48.588;9.250;2022-09-17T12:38:46;14.40;99.90
18041;DHT22;9145;48.588;9.250;2022-09-17T12:41:20;14.20;99.90
18041;DHT22;9145;48.588;9.250;2022-09-17T12:44:09;14.10;99.90
18041;DHT22;9145;48.588;9.250;2022-09-17T12:46:50;14.00;99.90
18041;DHT22;9145;48.588;9.250;2022-09-17T12:49:43;14.00;99.90
18041;DHT22;9145;48.588;9.250;2022-09-17T12:52:27;14.00;99.90
18041;DHT22;9145;48.588;9.250;2022-09-17T12:55:16;14.00;99.90
18041;DHT22;9145;48.588;9.250;2022-09-17T12:57:56;14.10;99.90
18041;DHT22;9145;48.588;9.250;2022-09-17T13:00:24;14.20;99.90
18041;DHT22;9145;48.588;9.250;2022-09-17T13:02:59;14.30;99.90
18041;DHT22;9145;48.588;9.250;2022-09-17T13:05:46;14.40;99.90
18041;DHT22;9145;48.588;9.250;2022-09-17T13:08:52;14.50;99.90
18041;DHT22;9145;48.588;9.250;2022-09-17T13:14:34;14.10;99.90
18041;DHT22;9145;48.588;9.250;2022-09-17T13:17:12;14.00;99.90
18041;DHT22;9145;48.588;9.250;2022-09-17T13:19:52;13.90;99.90
18041;DHT22;9145;48.588;9.250;2022-09-17T13:22:27;13.70;99.90
18041;DHT22;9145;48.588;9.250;2022-09-17T13:25:02;13.40;99.90
18041;DHT22;9145;48.588;9.250;2022-09-17T13:27:30;13.00;99.90
18041;DHT22;9145;48.588;9.250;2022-09-17T13:30:00;12.80;99.90
18041;DHT22;9145;48.588;9.250;2022-09-17T13:32:49;12.40;99.90
18041;DHT22;9145;48.588;9.250;2022-09-17T13:35:50;11.70;99.90
18041;DHT22;9145;48.588;9.250;2022-09-17T13:38:21;11.10;99.90
18041;DHT22;9145;48.588;9.250;2022-09-17T13:40:48;10.60;99.90
18041;DHT22;9145;48.588;9.250;2022-09-17T13:43:18;10.50;99.90
18041;DHT22;9145;48.588;9.250;2022-09-17T13:46:14;10.40;99.90
18041;DHT22;9145;48.588;9.250;2022-09-17T13:48:49;10.50;99.90
18041;DHT22;9145;48.588;9.250;2022-09-17T13:51:51;10.60;99.90
18041;DHT22;9145;48.588;9.250;2022-09-17T13:54:20;10.90;99.90
18041;DHT22;9145;48.588;9.250;2022-09-17T13:59:55;11.40;99.90
18041;DHT22;9145;48.588;9.250;2022-09-17T14:02:32;11.70;99.90
18041;DHT22;9145;48.588;9.250;2022-09-17T14:05:24;11.90;99.90
18041;DHT22;9145;48.588;9.250;2022-09-17T14:10:54;12.40;99.90
18041;DHT22;9145;48.588;9.250;2022-09-17T14:16:45;13.20;99.90
18041;DHT22;9145;48.588;9.250;2022-09-17T14:19:30;13.50;99.90
18041;DHT22;9145;48.588;9.250;2022-09-17T14:22:01;13.80;99.90
18041;DHT22;9145;48.588;9.250;2022-09-17T14:24:36;14.10;99.90
18041;DHT22;9145;48.588;9.250;2022-09-17T14:27:10;14.40;99.90
18041;DHT22;9145;48.588;9.250;2022-09-17T14:30:03;14.60;99.90
18041;DHT22;9145;48.588;9.250;2022-09-17T14:32:35;14.60;99.90
18041;DHT22;9145;48.588;9.250;2022-09-17T14:35:14;14.50;99.90
18041;DHT22;9145;48.588;9.250;2022-09-17T14:37:42;14.60;99.90
18041;DHT22;9145;48.588;9.250;2022-09-17T14:40:15;14.70;99.90
18041;DHT22;9145;48.588;9.250;2022-09-17T14:42:43;15.20;99.90
18041;DHT22;9145;48.588;9.250;2022-09-17T14:45:16;15.20;99.90
18041;DHT22;9145;48.588;9.250;2022-09-17T14:47:44;14.90;99.90
18041;DHT22;9145;48.588;9.250;2022-09-17T14:50:22;14.40;99.90
18041;DHT22;9145;48.588;9.250;2022-09-17T14:52:51;13.90;99.90
18041;DHT22;9145;48.588;9.250;2022-09-17T14:55:19;13.70;99.90
18041;DHT22;9145;48.588;9.250;2022-09-17T14:57:51;13.40;99.90
18041;DHT22;9145;48.588;9.250;2022-09-17T15:00:21;13.40;99.90
18041;DHT22;9145;48.588;9.250;2022-09-17T15:02:50;13.40;99.90
18041;DHT22;9145;48.588;9.250;2022-09-17T15:05:22;13.30;99.90
18041;DHT22;9145;48.588;9.250;2022-09-17T15:07:51;13.40;99.90
18041;DHT22;9145;48.588;9.250;2022-09-17T15:10:30;13.40;99.90
18041;DHT22;9145;48.588;9.250;2022-09-17T15:12:57;13.50;99.90
18041;DHT22;9145;48.588;9.250;2022-09-17T15:15:25;13.60;99.90
18041;DHT22;9145;48.588;9.250;2022-09-17T15:17:53;13.80;99.90
18041;DHT22;9145;48.588;9.250;2022-09-17T15:20:23;13.80;99.90
18041;DHT22;9145;48.588;9.250;2022-09-17T15:22:57;13.70;99.90
18041;DHT22;9145;48.588;9.250;2022-09-17T15:25:29;13.50;99.90
18041;DHT22;9145;48.588;9.250;2022-09-17T15:27:57;13.40;99.90
18041;DHT22;9145;48.588;9.250;2022-09-17T15:30:30;13.30;99.90
18041;DHT22;9145;48.588;9.250;2022-09-17T15:32:58;13.20;99.90
18041;DHT22;9145;48.588;9.250;2022-09-17T15:35:27;13.10;99.90
18041;DHT22;9145;48.588;9.250;2022-09-17T15:37:56;13.10;99.90
18041;DHT22;9145;48.588;9.250;2022-09-17T15:40:29;12.90;99.90
18041;DHT22;9145;48.588;9.250;2022-09-17T15:43:03;12.80;99.90
18041;DHT22;9145;48.588;9.250;2022-09-17T15:45:32;12.90;99.90
18041;DHT22;9145;48.588;9.250;2022-09-17T15:48:02;13.00;99.90
18041;DHT22;9145;48.588;9.250;2022-09-17T15:50:31;13.00;99.90
18041;DHT22;9145;48.588;9.250;2022-09-17T15:53:13;13.00;99.90
18041;DHT22;9145;48.588;9.250;2022-09-17T15:55:42;13.00;99.90
18041;DHT22;9145;48.588;9.250;2022-09-17T15:58:24;12.90;99.90
18041;DHT22;9145;48.588;9.250;2022-09-17T16:04:16;12.90;99.90
18041;DHT22;9145;48.588;9.250;2022-09-17T16:06:53;13.00;99.90
18041;DHT22;9145;48.588;9.250;2022-09-17T16:09:44;12.90;99.90
18041;DHT22;9145;48.588;9.250;2022-09-17T16:12:14;13.00;99.90
18041;DHT22;9145;48.588;9.250;2022-09-17T16:14:43;13.20;99.90
18041;DHT22;9145;48.588;9.250;2022-09-17T16:17:28;13.50;99.90
18041;DHT22;9145;48.588;9.250;2022-09-17T16:19:57;13.60;99.90
18041;DHT22;9145;48.588;9.250;2022-09-17T16:22:26;13.30;99.90
18041;DHT22;9145;48.588;9.250;2022-09-17T16:24:54;13.20;99.90
18041;DHT22;9145;48.588;9.250;2022-09-17T16:27:23;13.10;99.90
18041;DHT22;9145;48.588;9.250;2022-09-17T16:29:51;13.10;99.90
18041;DHT22;9145;48.588;9.250;2022-09-17T16:32:22;13.40;99.90
18041;DHT22;9145;48.588;9.250;2022-09-17T16:34:48;13.70;99.90
18041;DHT22;9145;48.588;9.250;2022-09-17T16:37:15;14.40;99.90
18041;DHT22;9145;48.588;9.250;2022-09-17T16:39:44;14.90;99.90
18041;DHT22;9145;48.588;9.250;2022-09-17T16:42:10;15.40;99.90